UAE1444 OEJN-OMAA
Flight info
| Callsign | UAE1444 |
|---|---|
| Flight time | N/A |
| Altitude | 41000 |
| Route | EGREP T532 KODIS Y214 RAPMA DCT KUVSO DCT RIBOT M550 GOLGU M318 ATUDO |
| Aircraft | A359/H-SDE2E3GHIJ3J4J5LM1ORWXY/LB1D1 |
Departure
| Time | 2026-04-28 22:26 |
|---|---|
| Airport | King Abdulaziz International Airport (OEJN) |
Arrival
| Time | N/A |
|---|---|
| Airport | Zayed International Airport (OMAA) |
| Time | Latitude | Longitude | Altitude | Speed | Heading |
|---|---|---|---|---|---|
| 2026-04-28 21:25 | 21.67128 | 39.16718 | 39 ft | 0 kts | 191° |
| 2026-04-28 22:05 | 21.67139 | 39.16720 | 37 ft | 4 kts | 185° |
| 2026-04-28 22:06 | 21.67145 | 39.16720 | 38 ft | 0 kts | 184° |
| 2026-04-28 22:08 | 21.67161 | 39.16722 | 39 ft | 4 kts | 187° |
| 2026-04-28 22:08 | 21.67187 | 39.16729 | 37 ft | 4 kts | 210° |
| 2026-04-28 22:09 | 21.67207 | 39.16747 | 36 ft | 4 kts | 238° |
| 2026-04-28 22:09 | 21.67215 | 39.16771 | 34 ft | 3 kts | 278° |
| 2026-04-28 22:09 | 21.67215 | 39.16774 | 34 ft | 4 kts | 280° |
| 2026-04-28 22:15 | 21.67222 | 39.16727 | 37 ft | 14 kts | 279° |
| 2026-04-28 22:15 | 21.67237 | 39.16631 | 38 ft | 14 kts | 279° |
| 2026-04-28 22:16 | 21.67270 | 39.16525 | 38 ft | 16 kts | 310° |
| 2026-04-28 22:16 | 21.67370 | 39.16474 | 38 ft | 17 kts | 340° |
| 2026-04-28 22:16 | 21.67482 | 39.16431 | 37 ft | 17 kts | 340° |
| 2026-04-28 22:16 | 21.67563 | 39.16363 | 37 ft | 10 kts | 279° |
| 2026-04-28 22:17 | 21.67547 | 39.16299 | 37 ft | 10 kts | 246° |
| 2026-04-28 22:17 | 21.67517 | 39.16223 | 36 ft | 12 kts | 251° |
| 2026-04-28 22:17 | 21.67473 | 39.16166 | 36 ft | 8 kts | 200° |
| 2026-04-28 22:17 | 21.67422 | 39.16172 | 36 ft | 8 kts | 166° |
| 2026-04-28 22:18 | 21.67323 | 39.16203 | 37 ft | 20 kts | 162° |
| 2026-04-28 22:18 | 21.67189 | 39.16253 | 38 ft | 21 kts | 157° |
| 2026-04-28 22:18 | 21.67050 | 39.16314 | 39 ft | 22 kts | 160° |
| 2026-04-28 22:18 | 21.66898 | 39.16372 | 40 ft | 24 kts | 160° |
| 2026-04-28 22:19 | 21.66735 | 39.16432 | 40 ft | 26 kts | 161° |
| 2026-04-28 22:19 | 21.66561 | 39.16500 | 41 ft | 27 kts | 159° |
| 2026-04-28 22:19 | 21.66382 | 39.16575 | 41 ft | 26 kts | 156° |
| 2026-04-28 22:19 | 21.66328 | 39.16602 | 41 ft | 7 kts | 155° |
| 2026-04-28 22:20 | 21.66274 | 39.16626 | 41 ft | 11 kts | 160° |
| 2026-04-28 22:20 | 21.66209 | 39.16638 | 42 ft | 4 kts | 196° |
| 2026-04-28 22:20 | 21.66206 | 39.16635 | 42 ft | 0 kts | 206° |
| 2026-04-28 22:24 | 21.66168 | 39.16598 | 41 ft | 26 kts | 228° |
| 2026-04-28 22:24 | 21.66141 | 39.16491 | 40 ft | 0 kts | 295° |
| 2026-04-28 22:25 | 21.66148 | 39.16483 | 40 ft | 8 kts | 312° |
| 2026-04-28 22:25 | 21.66330 | 39.16402 | 40 ft | 60 kts | 340° |
| 2026-04-28 22:25 | 21.66936 | 39.16165 | 40 ft | 126 kts | 340° |
| 2026-04-28 22:25 | 21.67932 | 39.15771 | 128 ft | 173 kts | 340° |
| 2026-04-28 22:26 | 21.69018 | 39.15348 | 950 ft | 164 kts | 341° |
| 2026-04-28 22:26 | 21.70083 | 39.14924 | 1669 ft | 161 kts | 340° |
| 2026-04-28 22:26 | 21.71125 | 39.14500 | 2253 ft | 161 kts | 339° |
| 2026-04-28 22:26 | 21.72214 | 39.14076 | 2442 ft | 172 kts | 339° |
| 2026-04-28 22:27 | 21.73379 | 39.13621 | 2590 ft | 185 kts | 339° |
| 2026-04-28 22:27 | 21.74625 | 39.13131 | 2700 ft | 197 kts | 339° |
| 2026-04-28 22:27 | 21.75947 | 39.12610 | 2839 ft | 207 kts | 339° |
| 2026-04-28 22:27 | 21.77332 | 39.12069 | 2953 ft | 218 kts | 339° |
| 2026-04-28 22:28 | 21.78876 | 39.11776 | 3024 ft | 233 kts | 357° |
| 2026-04-28 22:28 | 21.80483 | 39.12201 | 3154 ft | 248 kts | 25° |
| 2026-04-28 22:28 | 21.81872 | 39.13375 | 3232 ft | 260 kts | 40° |
| 2026-04-28 22:28 | 21.83178 | 39.14774 | 3352 ft | 269 kts | 42° |
| 2026-04-28 22:29 | 21.84506 | 39.16235 | 3454 ft | 276 kts | 43° |
| 2026-04-28 22:29 | 21.85855 | 39.17718 | 3523 ft | 281 kts | 42° |
| 2026-04-28 22:29 | 21.87253 | 39.19239 | 3622 ft | 287 kts | 42° |
| 2026-04-28 22:29 | 21.88672 | 39.20773 | 3705 ft | 290 kts | 42° |
| 2026-04-28 22:30 | 21.90085 | 39.22303 | 4060 ft | 283 kts | 42° |
| 2026-04-28 22:30 | 21.91431 | 39.23762 | 4707 ft | 267 kts | 43° |
| 2026-04-28 22:30 | 21.92740 | 39.25176 | 4972 ft | 270 kts | 43° |
| 2026-04-28 22:30 | 21.94070 | 39.26610 | 5074 ft | 278 kts | 43° |
| 2026-04-28 22:31 | 21.95444 | 39.28094 | 5311 ft | 279 kts | 43° |
| 2026-04-28 22:31 | 21.96786 | 39.29542 | 5859 ft | 266 kts | 44° |
| 2026-04-28 22:31 | 21.98048 | 39.30907 | 6540 ft | 248 kts | 44° |
| 2026-04-28 22:31 | 21.99222 | 39.32177 | 7215 ft | 230 kts | 44° |
| 2026-04-28 22:32 | 22.00318 | 39.33358 | 7768 ft | 218 kts | 44° |
| 2026-04-28 22:32 | 22.01379 | 39.34506 | 8141 ft | 216 kts | 44° |
| 2026-04-28 22:32 | 22.02446 | 39.35658 | 8393 ft | 219 kts | 44° |
| 2026-04-28 22:32 | 22.03536 | 39.36834 | 8647 ft | 224 kts | 44° |
| 2026-04-28 22:33 | 22.04643 | 39.38032 | 8903 ft | 228 kts | 44° |
| 2026-04-28 22:33 | 22.05781 | 39.39263 | 9103 ft | 236 kts | 44° |
| 2026-04-28 22:33 | 22.06966 | 39.40545 | 9264 ft | 246 kts | 44° |
| 2026-04-28 22:33 | 22.08195 | 39.41874 | 9412 ft | 255 kts | 44° |
| 2026-04-28 22:34 | 22.09468 | 39.43252 | 9557 ft | 263 kts | 44° |
| 2026-04-28 22:34 | 22.10780 | 39.44672 | 9713 ft | 271 kts | 45° |
| 2026-04-28 22:34 | 22.11941 | 39.46289 | 9857 ft | 276 kts | 65° |
| 2026-04-28 22:34 | 22.12384 | 39.48265 | 9990 ft | 278 kts | 91° |
| 2026-04-28 22:35 | 22.12206 | 39.50355 | 10055 ft | 284 kts | 102° |
| 2026-04-28 22:35 | 22.11856 | 39.52492 | 10053 ft | 294 kts | 103° |
| 2026-04-28 22:35 | 22.11470 | 39.54715 | 10051 ft | 302 kts | 103° |
| 2026-04-28 22:35 | 22.11079 | 39.56938 | 10051 ft | 309 kts | 103° |
| 2026-04-28 22:36 | 22.10675 | 39.59237 | 10059 ft | 314 kts | 103° |
| 2026-04-28 22:36 | 22.10529 | 39.61608 | 10060 ft | 322 kts | 85° |
| 2026-04-28 22:36 | 22.11210 | 39.63919 | 10061 ft | 328 kts | 62° |
| 2026-04-28 22:36 | 22.12605 | 39.65875 | 10068 ft | 331 kts | 46° |
| 2026-04-28 22:37 | 22.14241 | 39.67635 | 10110 ft | 333 kts | 44° |
| 2026-04-28 22:37 | 22.15901 | 39.69363 | 10280 ft | 329 kts | 44° |
| 2026-04-28 22:37 | 22.17532 | 39.71055 | 10578 ft | 322 kts | 44° |
| 2026-04-28 22:37 | 22.18590 | 39.72155 | 10774 ft | 317 kts | 43° |
| 2026-04-28 22:38 | 22.20166 | 39.73794 | 11071 ft | 311 kts | 43° |
| 2026-04-28 22:38 | 22.21715 | 39.75405 | 11360 ft | 307 kts | 43° |
| 2026-04-28 22:38 | 22.23235 | 39.76991 | 11691 ft | 302 kts | 44° |
| 2026-04-28 22:38 | 22.24736 | 39.78559 | 12005 ft | 298 kts | 44° |
| 2026-04-28 22:39 | 22.26694 | 39.80605 | 12399 ft | 293 kts | 43° |
| 2026-04-28 22:39 | 22.27686 | 39.81640 | 12551 ft | 296 kts | 44° |
| 2026-04-28 22:39 | 22.29178 | 39.83198 | 12641 ft | 301 kts | 44° |
| 2026-04-28 22:39 | 22.30697 | 39.84780 | 12726 ft | 306 kts | 44° |
| 2026-04-28 22:40 | 22.32221 | 39.86369 | 12832 ft | 310 kts | 44° |
| 2026-04-28 22:40 | 22.33779 | 39.87990 | 12917 ft | 314 kts | 43° |
| 2026-04-28 22:40 | 22.35477 | 39.89509 | 12968 ft | 317 kts | 37° |
| 2026-04-28 22:40 | 22.37239 | 39.90963 | 13047 ft | 320 kts | 36° |
| 2026-04-28 22:41 | 22.39038 | 39.92396 | 13108 ft | 323 kts | 35° |
| 2026-04-28 22:41 | 22.40867 | 39.93819 | 13170 ft | 325 kts | 34° |
| 2026-04-28 22:41 | 22.42721 | 39.95250 | 13230 ft | 328 kts | 34° |
| 2026-04-28 22:41 | 22.44582 | 39.96680 | 13290 ft | 330 kts | 34° |
| 2026-04-28 22:42 | 22.46461 | 39.98125 | 13323 ft | 332 kts | 34° |
| 2026-04-28 22:42 | 22.48347 | 39.99579 | 13384 ft | 334 kts | 34° |
| 2026-04-28 22:42 | 22.50218 | 40.01026 | 13398 ft | 335 kts | 35° |
| 2026-04-28 22:42 | 22.52144 | 40.02519 | 13423 ft | 337 kts | 35° |
| 2026-04-28 22:43 | 22.54031 | 40.03984 | 13477 ft | 339 kts | 34° |
| 2026-04-28 22:43 | 22.55968 | 40.05486 | 13609 ft | 350 kts | 34° |
| 2026-04-28 22:43 | 22.57983 | 40.07050 | 13807 ft | 361 kts | 35° |
| 2026-04-28 22:43 | 22.60055 | 40.08658 | 14017 ft | 372 kts | 35° |
| 2026-04-28 22:44 | 22.62187 | 40.10313 | 14189 ft | 382 kts | 35° |
| 2026-04-28 22:44 | 22.64371 | 40.12010 | 14390 ft | 391 kts | 35° |
| 2026-04-28 22:44 | 22.66603 | 40.13745 | 14623 ft | 398 kts | 35° |
| 2026-04-28 22:44 | 22.68862 | 40.15503 | 14976 ft | 401 kts | 35° |
| 2026-04-28 22:45 | 22.71135 | 40.17272 | 15318 ft | 404 kts | 35° |
| 2026-04-28 22:45 | 22.73430 | 40.19060 | 15670 ft | 407 kts | 35° |
| 2026-04-28 22:45 | 22.75729 | 40.20852 | 16022 ft | 409 kts | 34° |
| 2026-04-28 22:45 | 22.78048 | 40.22659 | 16398 ft | 411 kts | 34° |
| 2026-04-28 22:46 | 22.80386 | 40.24481 | 16761 ft | 414 kts | 34° |
| 2026-04-28 22:46 | 22.82729 | 40.26308 | 17103 ft | 417 kts | 34° |
| 2026-04-28 22:46 | 22.85096 | 40.28155 | 17443 ft | 420 kts | 34° |
| 2026-04-28 22:46 | 22.87479 | 40.30015 | 17793 ft | 423 kts | 34° |
| 2026-04-28 22:47 | 22.89875 | 40.31885 | 18130 ft | 426 kts | 34° |
| 2026-04-28 22:47 | 22.92291 | 40.33773 | 18445 ft | 429 kts | 34° |
| 2026-04-28 22:47 | 22.94691 | 40.35648 | 18729 ft | 432 kts | 34° |
| 2026-04-28 22:47 | 22.97168 | 40.37585 | 19037 ft | 435 kts | 34° |
| 2026-04-28 22:48 | 22.99600 | 40.39486 | 19309 ft | 437 kts | 34° |
| 2026-04-28 22:48 | 23.02078 | 40.41426 | 19591 ft | 440 kts | 34° |
| 2026-04-28 22:48 | 23.04572 | 40.43379 | 19873 ft | 443 kts | 34° |
| 2026-04-28 22:48 | 23.07080 | 40.45343 | 20165 ft | 446 kts | 33° |
| 2026-04-28 22:49 | 23.09602 | 40.47320 | 20421 ft | 450 kts | 33° |
| 2026-04-28 22:49 | 23.12152 | 40.49319 | 20713 ft | 452 kts | 33° |
| 2026-04-28 22:49 | 23.14702 | 40.51319 | 21019 ft | 454 kts | 33° |
| 2026-04-28 22:49 | 23.17285 | 40.53315 | 21251 ft | 456 kts | 31° |
| 2026-04-28 22:50 | 23.19902 | 40.55290 | 21482 ft | 459 kts | 31° |
| 2026-04-28 22:50 | 23.22534 | 40.57279 | 21725 ft | 462 kts | 31° |
| 2026-04-28 22:50 | 23.25076 | 40.59433 | 21901 ft | 467 kts | 39° |
| 2026-04-28 22:50 | 23.27300 | 40.62032 | 22146 ft | 471 kts | 50° |
| 2026-04-28 22:51 | 23.29077 | 40.65036 | 22368 ft | 475 kts | 60° |
| 2026-04-28 22:51 | 23.30517 | 40.68274 | 22602 ft | 476 kts | 66° |
| 2026-04-28 22:51 | 23.31740 | 40.71587 | 22842 ft | 478 kts | 69° |
| 2026-04-28 22:51 | 23.32878 | 40.74984 | 23070 ft | 480 kts | 70° |
| 2026-04-28 22:52 | 23.33993 | 40.78414 | 23290 ft | 482 kts | 70° |
| 2026-04-28 22:52 | 23.35123 | 40.81873 | 23500 ft | 485 kts | 70° |
| 2026-04-28 22:52 | 23.36276 | 40.85339 | 23687 ft | 488 kts | 69° |
| 2026-04-28 22:52 | 23.37450 | 40.88800 | 23876 ft | 489 kts | 69° |
| 2026-04-28 22:53 | 23.38640 | 40.92279 | 24064 ft | 491 kts | 69° |
| 2026-04-28 22:53 | 23.39837 | 40.95757 | 24306 ft | 491 kts | 69° |
| 2026-04-28 22:53 | 23.41047 | 40.99244 | 24472 ft | 494 kts | 68° |
| 2026-04-28 22:53 | 23.42267 | 41.02755 | 24605 ft | 497 kts | 68° |
| 2026-04-28 22:54 | 23.43489 | 41.06277 | 24791 ft | 498 kts | 68° |
| 2026-04-28 22:54 | 23.44714 | 41.09816 | 24958 ft | 500 kts | 68° |
| 2026-04-28 22:54 | 23.45942 | 41.13370 | 25096 ft | 503 kts | 68° |
| 2026-04-28 22:54 | 23.47174 | 41.16945 | 25231 ft | 506 kts | 68° |
| 2026-04-28 22:55 | 23.48411 | 41.20541 | 25377 ft | 508 kts | 68° |
| 2026-04-28 22:55 | 23.49655 | 41.24162 | 25535 ft | 510 kts | 68° |
| 2026-04-28 22:55 | 23.50899 | 41.27787 | 25685 ft | 512 kts | 68° |
| 2026-04-28 22:55 | 23.52150 | 41.31434 | 25842 ft | 514 kts | 68° |
| 2026-04-28 22:56 | 23.53402 | 41.35086 | 26050 ft | 516 kts | 68° |
| 2026-04-28 22:56 | 23.54662 | 41.38764 | 26157 ft | 519 kts | 68° |
| 2026-04-28 22:56 | 23.55924 | 41.42449 | 26332 ft | 520 kts | 68° |
| 2026-04-28 22:56 | 23.57191 | 41.46155 | 26500 ft | 522 kts | 68° |
| 2026-04-28 22:57 | 23.58448 | 41.49833 | 26670 ft | 524 kts | 68° |
| 2026-04-28 22:57 | 23.59722 | 41.53561 | 26838 ft | 526 kts | 68° |
| 2026-04-28 22:57 | 23.60998 | 41.57303 | 27003 ft | 527 kts | 68° |
| 2026-04-28 22:57 | 23.62276 | 41.61051 | 27207 ft | 528 kts | 68° |
| 2026-04-28 22:58 | 23.63558 | 41.64817 | 27379 ft | 530 kts | 67° |
| 2026-04-28 22:58 | 23.64846 | 41.68601 | 27539 ft | 532 kts | 67° |
| 2026-04-28 22:58 | 23.66136 | 41.72395 | 27682 ft | 535 kts | 67° |
| 2026-04-28 22:58 | 23.67433 | 41.76213 | 27787 ft | 538 kts | 67° |
| 2026-04-28 22:59 | 23.68710 | 41.80059 | 27999 ft | 539 kts | 68° |
| 2026-04-28 22:59 | 23.69947 | 41.83931 | 28401 ft | 542 kts | 69° |
| 2026-04-28 22:59 | 23.71179 | 41.87845 | 28812 ft | 546 kts | 69° |
| 2026-04-28 22:59 | 23.72411 | 41.91770 | 29179 ft | 550 kts | 68° |
| 2026-04-28 23:00 | 23.73641 | 41.95678 | 29535 ft | 553 kts | 68° |
| 2026-04-28 23:00 | 23.74903 | 41.99674 | 29856 ft | 557 kts | 68° |
| 2026-04-28 23:00 | 23.76207 | 42.03664 | 30254 ft | 559 kts | 67° |
| 2026-04-28 23:00 | 23.77568 | 42.07654 | 30558 ft | 562 kts | 66° |
| 2026-04-28 23:01 | 23.78955 | 42.11651 | 30853 ft | 564 kts | 66° |
| 2026-04-28 23:01 | 23.80349 | 42.15661 | 31170 ft | 566 kts | 66° |
| 2026-04-28 23:01 | 23.81744 | 42.19689 | 31450 ft | 568 kts | 66° |
| 2026-04-28 23:01 | 23.83132 | 42.23728 | 31790 ft | 569 kts | 66° |
| 2026-04-28 23:02 | 23.84518 | 42.27779 | 32088 ft | 571 kts | 67° |
| 2026-04-28 23:02 | 23.85908 | 42.31860 | 32346 ft | 573 kts | 67° |
| 2026-04-28 23:02 | 23.87296 | 42.35942 | 32606 ft | 575 kts | 67° |
| 2026-04-28 23:02 | 23.88689 | 42.40051 | 32868 ft | 577 kts | 67° |
| 2026-04-28 23:03 | 23.90085 | 42.44171 | 33189 ft | 577 kts | 67° |
| 2026-04-28 23:03 | 23.91463 | 42.48241 | 33500 ft | 577 kts | 67° |
| 2026-04-28 23:03 | 23.92853 | 42.52350 | 33870 ft | 576 kts | 67° |
| 2026-04-28 23:03 | 23.94241 | 42.56453 | 34219 ft | 575 kts | 67° |
| 2026-04-28 23:04 | 23.95624 | 42.60542 | 34544 ft | 573 kts | 67° |
| 2026-04-28 23:04 | 23.98372 | 42.68676 | 35293 ft | 567 kts | 67° |
| 2026-04-28 23:04 | 23.99733 | 42.72704 | 35600 ft | 565 kts | 67° |
| 2026-04-28 23:05 | 24.01094 | 42.76740 | 35912 ft | 564 kts | 68° |
| 2026-04-28 23:05 | 24.02442 | 42.80777 | 36087 ft | 566 kts | 69° |
| 2026-04-28 23:05 | 24.03450 | 42.84949 | 36242 ft | 567 kts | 79° |
| 2026-04-28 23:05 | 24.03838 | 42.89224 | 36513 ft | 563 kts | 90° |
| 2026-04-28 23:06 | 24.03552 | 42.93467 | 36800 ft | 556 kts | 101° |
| 2026-04-28 23:06 | 24.02718 | 42.97576 | 36972 ft | 553 kts | 106° |
| 2026-04-28 23:06 | 24.00623 | 43.05650 | 36997 ft | 549 kts | 109° |
| 2026-04-28 23:07 | 23.98390 | 43.13583 | 36997 ft | 548 kts | 109° |
| 2026-04-28 23:07 | 23.96162 | 43.21567 | 36994 ft | 549 kts | 109° |
| 2026-04-28 23:08 | 23.93967 | 43.29557 | 36990 ft | 548 kts | 109° |
| 2026-04-28 23:08 | 23.91784 | 43.37546 | 36990 ft | 548 kts | 109° |
| 2026-04-28 23:09 | 23.89595 | 43.45541 | 36984 ft | 548 kts | 109° |
| 2026-04-28 23:09 | 23.87403 | 43.53524 | 36976 ft | 549 kts | 109° |
| 2026-04-28 23:10 | 23.85220 | 43.61452 | 36974 ft | 549 kts | 109° |
| 2026-04-28 23:10 | 23.83017 | 43.69434 | 36964 ft | 548 kts | 109° |
| 2026-04-28 23:11 | 23.80808 | 43.77424 | 36956 ft | 548 kts | 109° |
| 2026-04-28 23:11 | 23.78601 | 43.85394 | 36945 ft | 549 kts | 108° |
| 2026-04-28 23:12 | 23.77280 | 43.93612 | 36939 ft | 551 kts | 97° |
| 2026-04-28 23:12 | 23.76589 | 44.01973 | 36935 ft | 554 kts | 95° |
| 2026-04-28 23:13 | 23.76002 | 44.10362 | 36926 ft | 554 kts | 95° |
| 2026-04-28 23:13 | 23.75407 | 44.18694 | 36938 ft | 555 kts | 95° |
| 2026-04-28 23:14 | 23.74779 | 44.27100 | 36931 ft | 555 kts | 95° |
| 2026-04-28 23:14 | 23.74139 | 44.35498 | 36935 ft | 555 kts | 95° |
| 2026-04-28 23:15 | 23.73494 | 44.43893 | 36933 ft | 555 kts | 95° |
| 2026-04-28 23:15 | 23.73171 | 44.48078 | 37066 ft | 554 kts | 95° |
| 2026-04-28 23:15 | 23.72847 | 44.52263 | 37333 ft | 553 kts | 95° |
| 2026-04-28 23:16 | 23.72522 | 44.56442 | 37634 ft | 551 kts | 95° |
| 2026-04-28 23:16 | 23.72198 | 44.60594 | 37930 ft | 550 kts | 95° |
| 2026-04-28 23:16 | 23.71873 | 44.64748 | 38258 ft | 546 kts | 95° |
| 2026-04-28 23:16 | 23.71550 | 44.68868 | 38596 ft | 544 kts | 95° |
| 2026-04-28 23:17 | 23.71225 | 44.72977 | 38810 ft | 542 kts | 95° |
| 2026-04-28 23:17 | 23.70899 | 44.77083 | 38970 ft | 542 kts | 96° |
| 2026-04-28 23:17 | 23.70578 | 44.81127 | 39142 ft | 542 kts | 96° |
| 2026-04-28 23:17 | 23.70251 | 44.85223 | 39313 ft | 541 kts | 96° |
| 2026-04-28 23:18 | 23.69925 | 44.89301 | 39499 ft | 540 kts | 96° |
| 2026-04-28 23:18 | 23.69597 | 44.93393 | 39665 ft | 540 kts | 96° |
| 2026-04-28 23:18 | 23.69269 | 44.97473 | 39767 ft | 541 kts | 96° |
| 2026-04-28 23:18 | 23.68937 | 45.01569 | 39836 ft | 542 kts | 95° |
| 2026-04-28 23:19 | 23.68604 | 45.05673 | 39975 ft | 542 kts | 95° |
| 2026-04-28 23:19 | 23.68273 | 45.09745 | 40290 ft | 537 kts | 95° |
| 2026-04-28 23:19 | 23.67942 | 45.13803 | 40512 ft | 535 kts | 95° |
| 2026-04-28 23:19 | 23.67611 | 45.17848 | 40653 ft | 535 kts | 95° |
| 2026-04-28 23:20 | 23.67283 | 45.21845 | 40767 ft | 535 kts | 96° |
| 2026-04-28 23:20 | 23.66949 | 45.25901 | 40835 ft | 537 kts | 96° |
| 2026-04-28 23:20 | 23.66278 | 45.34006 | 40914 ft | 536 kts | 96° |
| 2026-04-28 23:21 | 23.65604 | 45.42114 | 40911 ft | 536 kts | 96° |
| 2026-04-28 23:21 | 23.64924 | 45.50224 | 40905 ft | 537 kts | 96° |
| 2026-04-28 23:22 | 23.64357 | 45.56968 | 40892 ft | 537 kts | 96° |
| 2026-04-28 23:22 | 23.63558 | 45.66425 | 40899 ft | 534 kts | 96° |
| 2026-04-28 23:23 | 23.62870 | 45.74483 | 40891 ft | 534 kts | 96° |
| 2026-04-28 23:23 | 23.62176 | 45.82556 | 40888 ft | 534 kts | 96° |
| 2026-04-28 23:24 | 23.61479 | 45.90614 | 40884 ft | 533 kts | 96° |
| 2026-04-28 23:24 | 23.60779 | 45.98662 | 40882 ft | 533 kts | 96° |
| 2026-04-28 23:25 | 23.60075 | 46.06716 | 40887 ft | 533 kts | 96° |
| 2026-04-28 23:25 | 23.59487 | 46.13408 | 40890 ft | 533 kts | 96° |
| 2026-04-28 23:26 | 23.58660 | 46.22767 | 40886 ft | 534 kts | 96° |
| 2026-04-28 23:26 | 23.57942 | 46.30834 | 40895 ft | 534 kts | 96° |
| 2026-04-28 23:27 | 23.57343 | 46.37525 | 40896 ft | 534 kts | 96° |
| 2026-04-28 23:27 | 23.56618 | 46.45582 | 40900 ft | 534 kts | 96° |
| 2026-04-28 23:28 | 23.55805 | 46.53606 | 40891 ft | 526 kts | 102° |
| 2026-04-28 23:28 | 23.54946 | 46.57429 | 40890 ft | 513 kts | 111° |
| 2026-04-28 23:28 | 23.53573 | 46.60965 | 40887 ft | 501 kts | 121° |
| 2026-04-28 23:29 | 23.51687 | 46.64104 | 40894 ft | 489 kts | 133° |
| 2026-04-28 23:29 | 23.49335 | 46.66728 | 40893 ft | 480 kts | 144° |
| 2026-04-28 23:29 | 23.46624 | 46.68780 | 40885 ft | 471 kts | 155° |
| 2026-04-28 23:29 | 23.43670 | 46.70248 | 40881 ft | 462 kts | 165° |
| 2026-04-28 23:30 | 23.37503 | 46.71426 | 40886 ft | 448 kts | 183° |
| 2026-04-28 23:30 | 23.31458 | 46.70388 | 40877 ft | 437 kts | 201° |
| 2026-04-28 23:31 | 23.26130 | 46.67394 | 40871 ft | 429 kts | 217° |
| 2026-04-28 23:31 | 23.21987 | 46.62813 | 40874 ft | 425 kts | 234° |
| 2026-04-28 23:32 | 23.19380 | 46.57088 | 40880 ft | 425 kts | 250° |
| 2026-04-28 23:32 | 23.18509 | 46.50729 | 40891 ft | 428 kts | 265° |
| 2026-04-28 23:33 | 23.18794 | 46.44256 | 40873 ft | 429 kts | 270° |
| 2026-04-28 23:33 | 23.19382 | 46.37857 | 40873 ft | 428 kts | 271° |
| 2026-04-28 23:34 | 23.20008 | 46.31438 | 40871 ft | 428 kts | 271° |
| 2026-04-28 23:34 | 23.20550 | 46.24999 | 40879 ft | 427 kts | 269° |
| 2026-04-28 23:35 | 23.20812 | 46.18577 | 40864 ft | 424 kts | 268° |
| 2026-04-28 23:35 | 23.21195 | 46.12173 | 40874 ft | 425 kts | 270° |
| 2026-04-28 23:36 | 23.21662 | 46.05764 | 40864 ft | 425 kts | 270° |
| 2026-04-28 23:36 | 23.22095 | 45.99351 | 40871 ft | 425 kts | 269° |
| 2026-04-28 23:37 | 23.22456 | 45.92954 | 40868 ft | 423 kts | 268° |
| 2026-04-28 23:37 | 23.22778 | 45.86564 | 40867 ft | 423 kts | 269° |
| 2026-04-28 23:38 | 23.23190 | 45.80227 | 40863 ft | 423 kts | 271° |
| 2026-04-28 23:38 | 23.24405 | 45.73911 | 40872 ft | 431 kts | 283° |
| 2026-04-28 23:39 | 23.27035 | 45.68008 | 40874 ft | 438 kts | 296° |
| 2026-04-28 23:39 | 23.28933 | 45.65390 | 40875 ft | 446 kts | 307° |
| 2026-04-28 23:39 | 23.31329 | 45.63198 | 40881 ft | 455 kts | 318° |
| 2026-04-28 23:40 | 23.34116 | 45.61520 | 40879 ft | 464 kts | 329° |
| 2026-04-28 23:40 | 23.37217 | 45.60414 | 40882 ft | 473 kts | 340° |
| 2026-04-28 23:40 | 23.43883 | 45.60063 | 40885 ft | 490 kts | 0° |
| 2026-04-28 23:41 | 23.47247 | 45.60864 | 40889 ft | 499 kts | 11° |
| 2026-04-28 23:41 | 23.50466 | 45.62326 | 40887 ft | 505 kts | 22° |
| 2026-04-28 23:41 | 23.53419 | 45.64437 | 40886 ft | 512 kts | 34° |
| 2026-04-28 23:41 | 23.55978 | 45.67150 | 40886 ft | 516 kts | 46° |
| 2026-04-28 23:42 | 23.58032 | 45.70379 | 40884 ft | 519 kts | 59° |
| 2026-04-28 23:42 | 23.59467 | 45.73931 | 40886 ft | 519 kts | 71° |
| 2026-04-28 23:42 | 23.60267 | 45.77761 | 40888 ft | 518 kts | 83° |
| 2026-04-28 23:42 | 23.60435 | 45.81670 | 40891 ft | 515 kts | 91° |
| 2026-04-28 23:43 | 23.60090 | 45.89450 | 40879 ft | 512 kts | 95° |
| 2026-04-28 23:43 | 23.59521 | 45.97182 | 40874 ft | 511 kts | 95° |
| 2026-04-28 23:44 | 23.58981 | 46.04907 | 40874 ft | 511 kts | 95° |
| 2026-04-28 23:44 | 23.58489 | 46.12634 | 40881 ft | 511 kts | 94° |
| 2026-04-28 23:45 | 23.58012 | 46.20356 | 40881 ft | 511 kts | 94° |
| 2026-04-28 23:45 | 23.57531 | 46.28096 | 40881 ft | 512 kts | 94° |
| 2026-04-28 23:46 | 23.57046 | 46.35834 | 40888 ft | 512 kts | 94° |
| 2026-04-28 23:46 | 23.56556 | 46.43572 | 40897 ft | 512 kts | 95° |
| 2026-04-28 23:47 | 23.56057 | 46.51316 | 40892 ft | 513 kts | 95° |
| 2026-04-28 23:47 | 23.55419 | 46.59108 | 40885 ft | 519 kts | 96° |
| 2026-04-28 23:48 | 23.54689 | 46.66967 | 40880 ft | 524 kts | 96° |
| 2026-04-28 23:48 | 23.53949 | 46.74862 | 40872 ft | 530 kts | 96° |
| 2026-04-28 23:49 | 23.53207 | 46.82849 | 40867 ft | 530 kts | 96° |
| 2026-04-28 23:49 | 23.52465 | 46.90849 | 40865 ft | 530 kts | 96° |
| 2026-04-28 23:50 | 23.51719 | 46.98839 | 40856 ft | 530 kts | 97° |
| 2026-04-28 23:50 | 23.50968 | 47.06836 | 40843 ft | 530 kts | 97° |
| 2026-04-28 23:51 | 23.50213 | 47.14827 | 40829 ft | 530 kts | 97° |
| 2026-04-28 23:51 | 23.49461 | 47.22753 | 40837 ft | 528 kts | 97° |
| 2026-04-28 23:52 | 23.48701 | 47.30701 | 40835 ft | 528 kts | 97° |
| 2026-04-28 23:52 | 23.47937 | 47.38652 | 40839 ft | 528 kts | 97° |
| 2026-04-28 23:53 | 23.47169 | 47.46597 | 40827 ft | 528 kts | 97° |
| 2026-04-28 23:53 | 23.46398 | 47.54548 | 40826 ft | 528 kts | 97° |
| 2026-04-28 23:54 | 23.45623 | 47.62496 | 40826 ft | 528 kts | 97° |
| 2026-04-28 23:54 | 23.44848 | 47.70397 | 40814 ft | 527 kts | 97° |
| 2026-04-28 23:55 | 23.44067 | 47.78322 | 40807 ft | 526 kts | 97° |
| 2026-04-28 23:55 | 23.43282 | 47.86241 | 40798 ft | 525 kts | 97° |
| 2026-04-28 23:56 | 23.42495 | 47.94135 | 40791 ft | 524 kts | 97° |
| 2026-04-28 23:56 | 23.41705 | 48.02028 | 40798 ft | 524 kts | 97° |
| 2026-04-28 23:57 | 23.40911 | 48.09920 | 40794 ft | 524 kts | 97° |
| 2026-04-28 23:57 | 23.40113 | 48.17804 | 40786 ft | 524 kts | 97° |
| 2026-04-28 23:58 | 23.39312 | 48.25680 | 40774 ft | 523 kts | 97° |
| 2026-04-28 23:58 | 23.38515 | 48.33488 | 40778 ft | 522 kts | 97° |
| 2026-04-28 23:59 | 23.37956 | 48.41356 | 40776 ft | 522 kts | 93° |
| 2026-04-28 23:59 | 23.37734 | 48.49279 | 40773 ft | 523 kts | 92° |
| 2026-04-29 00:00 | 23.37500 | 48.57190 | 40776 ft | 524 kts | 92° |
| 2026-04-29 00:00 | 23.37202 | 48.65107 | 40774 ft | 523 kts | 93° |
| 2026-04-29 00:01 | 23.36871 | 48.73022 | 40768 ft | 523 kts | 93° |
| 2026-04-29 00:01 | 23.36532 | 48.80933 | 40764 ft | 523 kts | 93° |
| 2026-04-29 00:02 | 23.36192 | 48.88838 | 40753 ft | 523 kts | 93° |
| 2026-04-29 00:02 | 23.35850 | 48.96742 | 40762 ft | 522 kts | 93° |
| 2026-04-29 00:03 | 23.35505 | 49.04631 | 40759 ft | 521 kts | 93° |
| 2026-04-29 00:03 | 23.35140 | 49.12490 | 40762 ft | 521 kts | 94° |
| 2026-04-29 00:04 | 23.34726 | 49.20311 | 40755 ft | 521 kts | 94° |